sensor_id;sensor_type;location;lat;lon;timestamp;P1;durP1;ratioP1;P2;durP2;ratioP2
46643;SDS011;32371;51.032;5.816;2023-12-20T00:01:38;16.80;;;6.03;;
46643;SDS011;32371;51.032;5.816;2023-12-20T00:04:03;12.73;;;6.05;;
46643;SDS011;32371;51.032;5.816;2023-12-20T00:06:29;13.90;;;6.78;;
46643;SDS011;32371;51.032;5.816;2023-12-20T00:08:56;12.63;;;5.70;;
46643;SDS011;32371;51.032;5.816;2023-12-20T00:11:22;13.52;;;6.30;;
46643;SDS011;32371;51.032;5.816;2023-12-20T00:13:48;13.65;;;5.88;;
46643;SDS011;32371;51.032;5.816;2023-12-20T00:16:13;10.85;;;5.05;;
46643;SDS011;32371;51.032;5.816;2023-12-20T00:18:39;9.02;;;4.43;;
46643;SDS011;32371;51.032;5.816;2023-12-20T00:21:04;6.13;;;2.97;;
46643;SDS011;32371;51.032;5.816;2023-12-20T00:23:30;7.63;;;2.97;;
46643;SDS011;32371;51.032;5.816;2023-12-20T00:25:57;5.93;;;2.92;;
46643;SDS011;32371;51.032;5.816;2023-12-20T00:28:22;12.32;;;3.10;;
46643;SDS011;32371;51.032;5.816;2023-12-20T00:30:48;5.80;;;2.20;;
46643;SDS011;32371;51.032;5.816;2023-12-20T00:33:13;8.60;;;2.67;;
46643;SDS011;32371;51.032;5.816;2023-12-20T00:35:38;7.63;;;1.98;;
46643;SDS011;32371;51.032;5.816;2023-12-20T00:38:04;10.05;;;1.75;;
46643;SDS011;32371;51.032;5.816;2023-12-20T00:40:32;9.88;;;2.20;;
46643;SDS011;32371;51.032;5.816;2023-12-20T00:42:58;11.68;;;2.63;;
46643;SDS011;32371;51.032;5.816;2023-12-20T00:45:23;12.15;;;1.80;;
46643;SDS011;32371;51.032;5.816;2023-12-20T00:47:49;4.25;;;1.60;;
46643;SDS011;32371;51.032;5.816;2023-12-20T00:50:14;5.47;;;1.30;;
46643;SDS011;32371;51.032;5.816;2023-12-20T00:52:39;3.38;;;1.50;;
46643;SDS011;32371;51.032;5.816;2023-12-20T00:55:05;4.53;;;1.48;;
46643;SDS011;32371;51.032;5.816;2023-12-20T00:57:32;5.00;;;1.17;;
46643;SDS011;32371;51.032;5.816;2023-12-20T00:59:58;7.80;;;1.15;;
46643;SDS011;32371;51.032;5.816;2023-12-20T01:02:23;5.53;;;1.20;;
46643;SDS011;32371;51.032;5.816;2023-12-20T01:04:49;11.80;;;0.90;;
46643;SDS011;32371;51.032;5.816;2023-12-20T01:07:14;6.35;;;0.98;;
46643;SDS011;32371;51.032;5.816;2023-12-20T01:09:39;18.23;;;2.05;;
46643;SDS011;32371;51.032;5.816;2023-12-20T01:12:05;8.70;;;0.90;;
46643;SDS011;32371;51.032;5.816;2023-12-20T01:14:31;3.85;;;1.10;;
46643;SDS011;32371;51.032;5.816;2023-12-20T01:16:57;6.03;;;1.02;;
46643;SDS011;32371;51.032;5.816;2023-12-20T01:19:23;3.35;;;0.65;;
46643;SDS011;32371;51.032;5.816;2023-12-20T01:21:49;1.83;;;0.80;;
46643;SDS011;32371;51.032;5.816;2023-12-20T01:24:15;3.28;;;0.95;;
46643;SDS011;32371;51.032;5.816;2023-12-20T01:26:40;5.30;;;1.27;;
46643;SDS011;32371;51.032;5.816;2023-12-20T01:29:05;5.70;;;0.80;;
46643;SDS011;32371;51.032;5.816;2023-12-20T01:31:31;8.10;;;0.88;;
46643;SDS011;32371;51.032;5.816;2023-12-20T01:33:56;1.83;;;0.75;;
46643;SDS011;32371;51.032;5.816;2023-12-20T01:36:21;5.10;;;0.90;;
46643;SDS011;32371;51.032;5.816;2023-12-20T01:38:47;9.73;;;1.10;;
46643;SDS011;32371;51.032;5.816;2023-12-20T01:41:12;10.85;;;1.20;;
46643;SDS011;32371;51.032;5.816;2023-12-20T01:43:38;2.30;;;0.82;;
46643;SDS011;32371;51.032;5.816;2023-12-20T01:46:03;4.65;;;0.98;;
46643;SDS011;32371;51.032;5.816;2023-12-20T01:48:29;5.82;;;1.52;;
46643;SDS011;32371;51.032;5.816;2023-12-20T01:50:56;5.28;;;1.08;;
46643;SDS011;32371;51.032;5.816;2023-12-20T01:53:23;5.95;;;1.08;;
46643;SDS011;32371;51.032;5.816;2023-12-20T01:55:49;5.70;;;1.10;;
46643;SDS011;32371;51.032;5.816;2023-12-20T01:58:15;3.55;;;1.05;;
46643;SDS011;32371;51.032;5.816;2023-12-20T02:00:41;10.45;;;1.02;;
46643;SDS011;32371;51.032;5.816;2023-12-20T02:03:06;12.43;;;1.92;;
46643;SDS011;32371;51.032;5.816;2023-12-20T02:05:34;3.83;;;0.95;;
46643;SDS011;32371;51.032;5.816;2023-12-20T02:08:00;12.65;;;0.93;;
46643;SDS011;32371;51.032;5.816;2023-12-20T02:10:25;10.35;;;1.33;;
46643;SDS011;32371;51.032;5.816;2023-12-20T02:12:51;8.02;;;1.52;;
46643;SDS011;32371;51.032;5.816;2023-12-20T02:15:16;5.82;;;0.80;;
46643;SDS011;32371;51.032;5.816;2023-12-20T02:17:42;4.70;;;0.90;;
46643;SDS011;32371;51.032;5.816;2023-12-20T02:20:08;11.10;;;1.42;;
46643;SDS011;32371;51.032;5.816;2023-12-20T02:22:33;5.70;;;1.30;;
46643;SDS011;32371;51.032;5.816;2023-12-20T02:24:58;13.57;;;1.50;;
46643;SDS011;32371;51.032;5.816;2023-12-20T02:27:24;7.00;;;1.52;;
46643;SDS011;32371;51.032;5.816;2023-12-20T02:29:50;5.95;;;1.20;;
46643;SDS011;32371;51.032;5.816;2023-12-20T02:32:16;6.90;;;1.67;;
46643;SDS011;32371;51.032;5.816;2023-12-20T02:34:42;5.00;;;0.90;;
46643;SDS011;32371;51.032;5.816;2023-12-20T02:37:08;7.60;;;1.20;;
46643;SDS011;32371;51.032;5.816;2023-12-20T02:39:33;3.42;;;1.40;;
46643;SDS011;32371;51.032;5.816;2023-12-20T02:41:59;9.25;;;1.15;;
46643;SDS011;32371;51.032;5.816;2023-12-20T02:44:24;6.35;;;1.38;;
46643;SDS011;32371;51.032;5.816;2023-12-20T02:46:49;7.97;;;1.90;;
46643;SDS011;32371;51.032;5.816;2023-12-20T02:49:15;5.03;;;2.22;;
46643;SDS011;32371;51.032;5.816;2023-12-20T02:51:42;3.78;;;1.70;;
46643;SDS011;32371;51.032;5.816;2023-12-20T02:54:07;6.50;;;1.65;;
46643;SDS011;32371;51.032;5.816;2023-12-20T02:56:33;13.15;;;2.25;;
46643;SDS011;32371;51.032;5.816;2023-12-20T02:58:58;3.97;;;1.33;;
46643;SDS011;32371;51.032;5.816;2023-12-20T03:01:23;8.13;;;2.40;;
46643;SDS011;32371;51.032;5.816;2023-12-20T03:03:49;5.63;;;1.67;;
46643;SDS011;32371;51.032;5.816;2023-12-20T03:06:18;13.25;;;2.33;;
46643;SDS011;32371;51.032;5.816;2023-12-20T03:08:43;4.35;;;1.38;;
46643;SDS011;32371;51.032;5.816;2023-12-20T03:11:09;4.45;;;1.63;;
46643;SDS011;32371;51.032;5.816;2023-12-20T03:13:35;8.93;;;1.52;;
46643;SDS011;32371;51.032;5.816;2023-12-20T03:16:00;5.60;;;2.63;;
46643;SDS011;32371;51.032;5.816;2023-12-20T03:18:25;6.45;;;1.70;;
46643;SDS011;32371;51.032;5.816;2023-12-20T03:20:53;7.93;;;1.98;;
46643;SDS011;32371;51.032;5.816;2023-12-20T03:23:18;8.93;;;1.75;;
46643;SDS011;32371;51.032;5.816;2023-12-20T03:25:43;11.23;;;1.80;;
46643;SDS011;32371;51.032;5.816;2023-12-20T03:28:09;4.53;;;1.23;;
46643;SDS011;32371;51.032;5.816;2023-12-20T03:30:34;5.68;;;1.95;;
46643;SDS011;32371;51.032;5.816;2023-12-20T03:32:59;4.88;;;1.80;;
46643;SDS011;32371;51.032;5.816;2023-12-20T03:35:25;8.13;;;1.52;;
46643;SDS011;32371;51.032;5.816;2023-12-20T03:37:51;9.57;;;1.70;;
46643;SDS011;32371;51.032;5.816;2023-12-20T03:40:18;4.45;;;1.58;;
46643;SDS011;32371;51.032;5.816;2023-12-20T03:42:43;8.45;;;1.92;;
46643;SDS011;32371;51.032;5.816;2023-12-20T03:45:09;7.75;;;1.65;;
46643;SDS011;32371;51.032;5.816;2023-12-20T03:47:36;21.40;;;2.70;;
46643;SDS011;32371;51.032;5.816;2023-12-20T03:50:01;6.50;;;1.75;;
46643;SDS011;32371;51.032;5.816;2023-12-20T03:52:27;6.47;;;2.03;;
46643;SDS011;32371;51.032;5.816;2023-12-20T03:54:52;7.25;;;1.83;;
46643;SDS011;32371;51.032;5.816;2023-12-20T03:57:18;12.68;;;1.65;;
46643;SDS011;32371;51.032;5.816;2023-12-20T03:59:43;8.38;;;2.05;;
46643;SDS011;32371;51.032;5.816;2023-12-20T04:02:09;5.50;;;1.60;;
46643;SDS011;32371;51.032;5.816;2023-12-20T04:04:35;8.02;;;1.90;;
46643;SDS011;32371;51.032;5.816;2023-12-20T04:07:01;5.63;;;1.30;;
46643;SDS011;32371;51.032;5.816;2023-12-20T04:09:26;12.90;;;2.30;;
46643;SDS011;32371;51.032;5.816;2023-12-20T04:11:52;5.80;;;1.42;;
46643;SDS011;32371;51.032;5.816;2023-12-20T04:14:17;11.55;;;2.03;;
46643;SDS011;32371;51.032;5.816;2023-12-20T04:16:43;3.22;;;1.58;;
46643;SDS011;32371;51.032;5.816;2023-12-20T04:19:08;6.45;;;2.53;;
46643;SDS011;32371;51.032;5.816;2023-12-20T04:21:34;11.68;;;3.03;;
46643;SDS011;32371;51.032;5.816;2023-12-20T04:23:59;7.10;;;1.92;;
46643;SDS011;32371;51.032;5.816;2023-12-20T04:26:24;7.65;;;1.58;;
46643;SDS011;32371;51.032;5.816;2023-12-20T04:28:50;10.40;;;1.33;;
46643;SDS011;32371;51.032;5.816;2023-12-20T04:31:15;4.22;;;1.60;;
46643;SDS011;32371;51.032;5.816;2023-12-20T04:33:41;8.60;;;1.65;;
46643;SDS011;32371;51.032;5.816;2023-12-20T04:36:06;10.02;;;1.65;;
46643;SDS011;32371;51.032;5.816;2023-12-20T04:38:34;12.52;;;1.63;;
46643;SDS011;32371;51.032;5.816;2023-12-20T04:40:59;8.75;;;1.83;;
46643;SDS011;32371;51.032;5.816;2023-12-20T04:43:25;13.32;;;1.90;;
46643;SDS011;32371;51.032;5.816;2023-12-20T04:45:50;8.25;;;2.53;;
46643;SDS011;32371;51.032;5.816;2023-12-20T04:48:16;12.80;;;2.28;;
46643;SDS011;32371;51.032;5.816;2023-12-20T04:50:42;12.50;;;1.95;;
46643;SDS011;32371;51.032;5.816;2023-12-20T04:53:07;4.18;;;0.95;;
46643;SDS011;32371;51.032;5.816;2023-12-20T04:55:32;9.10;;;1.75;;
46643;SDS011;32371;51.032;5.816;2023-12-20T04:57:58;6.72;;;2.42;;
46643;SDS011;32371;51.032;5.816;2023-12-20T05:00:23;8.20;;;2.63;;
46643;SDS011;32371;51.032;5.816;2023-12-20T05:02:49;7.03;;;1.67;;
46643;SDS011;32371;51.032;5.816;2023-12-20T05:05:14;11.60;;;2.55;;
46643;SDS011;32371;51.032;5.816;2023-12-20T05:07:42;8.23;;;3.10;;
46643;SDS011;32371;51.032;5.816;2023-12-20T05:10:08;12.15;;;1.77;;
46643;SDS011;32371;51.032;5.816;2023-12-20T05:12:34;10.57;;;1.88;;
46643;SDS011;32371;51.032;5.816;2023-12-20T05:14:59;11.38;;;1.95;;
46643;SDS011;32371;51.032;5.816;2023-12-20T05:17:25;6.85;;;1.67;;
46643;SDS011;32371;51.032;5.816;2023-12-20T05:19:50;12.18;;;1.95;;
46643;SDS011;32371;51.032;5.816;2023-12-20T05:22:16;5.97;;;2.15;;
46643;SDS011;32371;51.032;5.816;2023-12-20T05:24:42;8.68;;;1.88;;
46643;SDS011;32371;51.032;5.816;2023-12-20T05:27:07;3.80;;;1.40;;
46643;SDS011;32371;51.032;5.816;2023-12-20T05:29:32;8.68;;;3.03;;
46643;SDS011;32371;51.032;5.816;2023-12-20T05:31:58;5.13;;;2.03;;
46643;SDS011;32371;51.032;5.816;2023-12-20T05:34:24;8.40;;;2.60;;
46643;SDS011;32371;51.032;5.816;2023-12-20T05:36:49;4.55;;;1.52;;
46643;SDS011;32371;51.032;5.816;2023-12-20T05:39:15;3.92;;;1.67;;
46643;SDS011;32371;51.032;5.816;2023-12-20T05:41:40;6.28;;;1.63;;
46643;SDS011;32371;51.032;5.816;2023-12-20T05:44:05;16.85;;;1.83;;
46643;SDS011;32371;51.032;5.816;2023-12-20T05:46:31;6.05;;;1.40;;
46643;SDS011;32371;51.032;5.816;2023-12-20T05:48:56;6.05;;;1.50;;
46643;SDS011;32371;51.032;5.816;2023-12-20T05:51:21;7.35;;;1.80;;
46643;SDS011;32371;51.032;5.816;2023-12-20T05:53:47;8.65;;;2.63;;
46643;SDS011;32371;51.032;5.816;2023-12-20T05:56:14;9.63;;;2.15;;
46643;SDS011;32371;51.032;5.816;2023-12-20T05:58:40;5.00;;;1.52;;
46643;SDS011;32371;51.032;5.816;2023-12-20T06:01:06;6.13;;;1.77;;
46643;SDS011;32371;51.032;5.816;2023-12-20T06:03:32;8.05;;;1.90;;
46643;SDS011;32371;51.032;5.816;2023-12-20T06:05:58;14.70;;;2.78;;
46643;SDS011;32371;51.032;5.816;2023-12-20T06:08:25;10.38;;;1.73;;
46643;SDS011;32371;51.032;5.816;2023-12-20T06:10:50;16.58;;;3.35;;
46643;SDS011;32371;51.032;5.816;2023-12-20T06:13:16;10.50;;;2.22;;
46643;SDS011;32371;51.032;5.816;2023-12-20T06:15:42;6.82;;;1.75;;
46643;SDS011;32371;51.032;5.816;2023-12-20T06:18:07;9.02;;;2.05;;
46643;SDS011;32371;51.032;5.816;2023-12-20T06:20:32;14.20;;;2.00;;
46643;SDS011;32371;51.032;5.816;2023-12-20T06:22:58;9.82;;;2.80;;
46643;SDS011;32371;51.032;5.816;2023-12-20T06:25:23;11.63;;;3.03;;
46643;SDS011;32371;51.032;5.816;2023-12-20T06:27:49;6.70;;;1.83;;
46643;SDS011;32371;51.032;5.816;2023-12-20T06:30:15;6.53;;;2.20;;
46643;SDS011;32371;51.032;5.816;2023-12-20T06:32:40;6.13;;;2.00;;
46643;SDS011;32371;51.032;5.816;2023-12-20T06:35:07;14.40;;;3.33;;
46643;SDS011;32371;51.032;5.816;2023-12-20T06:37:33;11.55;;;2.95;;
46643;SDS011;32371;51.032;5.816;2023-12-20T06:39:59;9.02;;;1.92;;
46643;SDS011;32371;51.032;5.816;2023-12-20T06:42:24;6.95;;;1.70;;
46643;SDS011;32371;51.032;5.816;2023-12-20T06:44:49;8.93;;;1.88;;
46643;SDS011;32371;51.032;5.816;2023-12-20T06:47:15;8.57;;;2.30;;
46643;SDS011;32371;51.032;5.816;2023-12-20T06:49:40;5.97;;;2.85;;
46643;SDS011;32371;51.032;5.816;2023-12-20T06:52:06;8.18;;;2.08;;
46643;SDS011;32371;51.032;5.816;2023-12-20T06:54:31;7.30;;;1.80;;
46643;SDS011;32371;51.032;5.816;2023-12-20T06:56:59;16.23;;;2.45;;
46643;SDS011;32371;51.032;5.816;2023-12-20T06:59:24;8.15;;;1.92;;
46643;SDS011;32371;51.032;5.816;2023-12-20T07:01:50;12.95;;;2.30;;
46643;SDS011;32371;51.032;5.816;2023-12-20T07:04:16;12.70;;;1.95;;
46643;SDS011;32371;51.032;5.816;2023-12-20T07:06:45;10.88;;;2.15;;
46643;SDS011;32371;51.032;5.816;2023-12-20T07:09:10;4.85;;;1.90;;
46643;SDS011;32371;51.032;5.816;2023-12-20T07:11:35;15.05;;;2.30;;
46643;SDS011;32371;51.032;5.816;2023-12-20T07:14:01;10.82;;;1.90;;
46643;SDS011;32371;51.032;5.816;2023-12-20T07:16:26;11.32;;;2.33;;
46643;SDS011;32371;51.032;5.816;2023-12-20T07:18:51;11.55;;;2.90;;
46643;SDS011;32371;51.032;5.816;2023-12-20T07:21:17;6.57;;;2.17;;
46643;SDS011;32371;51.032;5.816;2023-12-20T07:23:43;20.30;;;2.28;;
46643;SDS011;32371;51.032;5.816;2023-12-20T07:26:08;12.13;;;2.13;;
46643;SDS011;32371;51.032;5.816;2023-12-20T07:28:34;8.52;;;2.17;;
46643;SDS011;32371;51.032;5.816;2023-12-20T07:30:59;7.45;;;2.45;;
46643;SDS011;32371;51.032;5.816;2023-12-20T07:33:25;4.65;;;1.88;;
46643;SDS011;32371;51.032;5.816;2023-12-20T07:35:50;9.40;;;2.42;;
46643;SDS011;32371;51.032;5.816;2023-12-20T07:38:16;6.55;;;2.80;;
46643;SDS011;32371;51.032;5.816;2023-12-20T07:40:42;15.95;;;2.20;;
46643;SDS011;32371;51.032;5.816;2023-12-20T07:43:08;7.95;;;1.73;;
46643;SDS011;32371;51.032;5.816;2023-12-20T07:45:33;9.57;;;2.10;;
46643;SDS011;32371;51.032;5.816;2023-12-20T07:47:59;7.57;;;2.40;;
46643;SDS011;32371;51.032;5.816;2023-12-20T07:50:24;12.00;;;2.47;;
46643;SDS011;32371;51.032;5.816;2023-12-20T07:52:50;15.55;;;2.65;;
46643;SDS011;32371;51.032;5.816;2023-12-20T07:55:16;11.25;;;2.67;;
46643;SDS011;32371;51.032;5.816;2023-12-20T07:57:41;9.93;;;2.60;;
46643;SDS011;32371;51.032;5.816;2023-12-20T08:00:07;9.38;;;3.13;;
46643;SDS011;32371;51.032;5.816;2023-12-20T08:02:32;12.25;;;3.05;;
46643;SDS011;32371;51.032;5.816;2023-12-20T08:04:58;18.02;;;4.25;;
46643;SDS011;32371;51.032;5.816;2023-12-20T08:07:24;10.57;;;2.85;;
46643;SDS011;32371;51.032;5.816;2023-12-20T08:09:51;6.05;;;2.53;;
46643;SDS011;32371;51.032;5.816;2023-12-20T08:12:18;12.43;;;2.75;;
46643;SDS011;32371;51.032;5.816;2023-12-20T08:14:43;9.82;;;3.30;;
46643;SDS011;32371;51.032;5.816;2023-12-20T08:17:08;10.80;;;2.95;;
46643;SDS011;32371;51.032;5.816;2023-12-20T08:19:34;12.60;;;2.47;;
46643;SDS011;32371;51.032;5.816;2023-12-20T08:22:00;11.25;;;2.80;;
46643;SDS011;32371;51.032;5.816;2023-12-20T08:24:26;7.88;;;2.03;;
46643;SDS011;32371;51.032;5.816;2023-12-20T08:26:51;11.65;;;2.33;;
46643;SDS011;32371;51.032;5.816;2023-12-20T08:29:18;12.65;;;2.35;;
46643;SDS011;32371;51.032;5.816;2023-12-20T08:31:43;13.40;;;2.25;;
46643;SDS011;32371;51.032;5.816;2023-12-20T08:34:08;12.63;;;2.75;;
46643;SDS011;32371;51.032;5.816;2023-12-20T08:36:36;8.00;;;2.10;;
46643;SDS011;32371;51.032;5.816;2023-12-20T08:39:02;14.80;;;2.13;;
46643;SDS011;32371;51.032;5.816;2023-12-20T08:41:28;10.30;;;2.10;;
46643;SDS011;32371;51.032;5.816;2023-12-20T08:43:54;12.43;;;1.83;;
46643;SDS011;32371;51.032;5.816;2023-12-20T08:46:19;15.43;;;1.88;;
46643;SDS011;32371;51.032;5.816;2023-12-20T08:48:44;10.38;;;2.50;;
46643;SDS011;32371;51.032;5.816;2023-12-20T08:51:10;6.20;;;1.80;;
46643;SDS011;32371;51.032;5.816;2023-12-20T08:53:35;17.00;;;3.05;;
46643;SDS011;32371;51.032;5.816;2023-12-20T08:56:01;5.82;;;1.63;;
46643;SDS011;32371;51.032;5.816;2023-12-20T08:58:27;9.95;;;2.90;;
46643;SDS011;32371;51.032;5.816;2023-12-20T09:00:53;6.90;;;1.70;;
46643;SDS011;32371;51.032;5.816;2023-12-20T09:03:18;8.23;;;2.10;;
46643;SDS011;32371;51.032;5.816;2023-12-20T09:05:43;12.52;;;2.10;;
46643;SDS011;32371;51.032;5.816;2023-12-20T09:08:09;9.15;;;2.30;;
46643;SDS011;32371;51.032;5.816;2023-12-20T09:10:35;6.13;;;1.65;;
46643;SDS011;32371;51.032;5.816;2023-12-20T09:13:01;7.82;;;1.30;;
46643;SDS011;32371;51.032;5.816;2023-12-20T09:15:27;5.72;;;1.63;;
46643;SDS011;32371;51.032;5.816;2023-12-20T09:17:53;4.85;;;2.00;;
46643;SDS011;32371;51.032;5.816;2023-12-20T09:20:18;5.10;;;1.90;;
46643;SDS011;32371;51.032;5.816;2023-12-20T09:22:44;9.20;;;1.77;;
46643;SDS011;32371;51.032;5.816;2023-12-20T09:25:09;9.57;;;1.80;;
46643;SDS011;32371;51.032;5.816;2023-12-20T09:27:36;8.45;;;2.05;;
46643;SDS011;32371;51.032;5.816;2023-12-20T09:30:01;3.88;;;1.23;;
46643;SDS011;32371;51.032;5.816;2023-12-20T09:32:27;10.02;;;2.17;;
46643;SDS011;32371;51.032;5.816;2023-12-20T09:34:52;9.43;;;1.77;;
46643;SDS011;32371;51.032;5.816;2023-12-20T09:37:18;5.28;;;1.38;;
46643;SDS011;32371;51.032;5.816;2023-12-20T09:39:43;9.07;;;2.70;;
46643;SDS011;32371;51.032;5.816;2023-12-20T09:42:08;10.02;;;2.22;;
46643;SDS011;32371;51.032;5.816;2023-12-20T09:44:37;13.57;;;1.88;;
46643;SDS011;32371;51.032;5.816;2023-12-20T09:47:05;5.45;;;1.70;;
46643;SDS011;32371;51.032;5.816;2023-12-20T09:49:32;15.07;;;2.30;;
46643;SDS011;32371;51.032;5.816;2023-12-20T09:51:58;4.55;;;1.55;;
46643;SDS011;32371;51.032;5.816;2023-12-20T09:54:25;6.32;;;1.92;;
46643;SDS011;32371;51.032;5.816;2023-12-20T09:56:52;6.28;;;1.70;;
46643;SDS011;32371;51.032;5.816;2023-12-20T09:59:17;14.65;;;2.85;;
46643;SDS011;32371;51.032;5.816;2023-12-20T10:01:43;7.38;;;1.50;;
46643;SDS011;32371;51.032;5.816;2023-12-20T10:04:09;8.90;;;2.05;;
46643;SDS011;32371;51.032;5.816;2023-12-20T10:06:46;9.32;;;1.50;;
46643;SDS011;32371;51.032;5.816;2023-12-20T10:09:12;4.43;;;1.13;;
46643;SDS011;32371;51.032;5.816;2023-12-20T10:11:38;9.50;;;1.63;;
46643;SDS011;32371;51.032;5.816;2023-12-20T10:14:04;4.35;;;1.90;;
46643;SDS011;32371;51.032;5.816;2023-12-20T10:16:31;12.60;;;1.50;;
46643;SDS011;32371;51.032;5.816;2023-12-20T10:18:57;6.30;;;1.48;;
46643;SDS011;32371;51.032;5.816;2023-12-20T10:21:23;7.95;;;1.80;;
46643;SDS011;32371;51.032;5.816;2023-12-20T10:23:51;7.63;;;1.63;;
46643;SDS011;32371;51.032;5.816;2023-12-20T10:26:20;2.08;;;1.10;;
46643;SDS011;32371;51.032;5.816;2023-12-20T10:28:46;9.13;;;1.52;;
46643;SDS011;32371;51.032;5.816;2023-12-20T10:33:57;11.27;;;1.52;;
46643;SDS011;32371;51.032;5.816;2023-12-20T10:36:24;5.82;;;1.23;;
46643;SDS011;32371;51.032;5.816;2023-12-20T10:38:52;7.55;;;1.85;;
46643;SDS011;32371;51.032;5.816;2023-12-20T10:41:18;8.32;;;1.38;;
46643;SDS011;32371;51.032;5.816;2023-12-20T10:43:53;11.77;;;2.03;;
46643;SDS011;32371;51.032;5.816;2023-12-20T10:46:21;9.82;;;2.58;;
46643;SDS011;32371;51.032;5.816;2023-12-20T10:48:47;10.63;;;1.80;;
46643;SDS011;32371;51.032;5.816;2023-12-20T10:51:14;6.38;;;1.65;;
46643;SDS011;32371;51.032;5.816;2023-12-20T10:53:43;9.63;;;1.80;;
46643;SDS011;32371;51.032;5.816;2023-12-20T10:56:09;8.50;;;1.75;;
46643;SDS011;32371;51.032;5.816;2023-12-20T10:58:37;20.20;;;1.60;;
46643;SDS011;32371;51.032;5.816;2023-12-20T11:01:07;7.63;;;1.38;;
46643;SDS011;32371;51.032;5.816;2023-12-20T11:03:34;10.82;;;1.50;;
46643;SDS011;32371;51.032;5.816;2023-12-20T11:06:03;11.70;;;1.60;;
46643;SDS011;32371;51.032;5.816;2023-12-20T11:11:47;9.50;;;1.60;;
46643;SDS011;32371;51.032;5.816;2023-12-20T11:14:22;11.32;;;1.85;;
46643;SDS011;32371;51.032;5.816;2023-12-20T11:16:50;8.18;;;2.10;;
46643;SDS011;32371;51.032;5.816;2023-12-20T11:19:16;14.20;;;2.22;;
46643;SDS011;32371;51.032;5.816;2023-12-20T11:21:42;10.35;;;1.60;;
46643;SDS011;32371;51.032;5.816;2023-12-20T11:24:07;5.43;;;1.67;;
46643;SDS011;32371;51.032;5.816;2023-12-20T11:26:32;14.27;;;2.30;;
46643;SDS011;32371;51.032;5.816;2023-12-20T11:29:29;7.38;;;1.83;;
46643;SDS011;32371;51.032;5.816;2023-12-20T11:31:56;9.85;;;1.70;;
46643;SDS011;32371;51.032;5.816;2023-12-20T11:34:21;8.43;;;1.90;;
46643;SDS011;32371;51.032;5.816;2023-12-20T11:36:47;8.00;;;1.70;;
46643;SDS011;32371;51.032;5.816;2023-12-20T11:39:17;7.10;;;1.58;;
46643;SDS011;32371;51.032;5.816;2023-12-20T11:44:11;4.15;;;1.58;;
46643;SDS011;32371;51.032;5.816;2023-12-20T11:46:36;11.57;;;1.90;;
46643;SDS011;32371;51.032;5.816;2023-12-20T11:49:02;12.80;;;3.10;;
46643;SDS011;32371;51.032;5.816;2023-12-20T11:51:28;6.70;;;1.60;;
46643;SDS011;32371;51.032;5.816;2023-12-20T11:53:53;5.60;;;2.13;;
46643;SDS011;32371;51.032;5.816;2023-12-20T11:56:18;8.05;;;2.25;;
46643;SDS011;32371;51.032;5.816;2023-12-20T11:58:44;6.70;;;1.58;;
46643;SDS011;32371;51.032;5.816;2023-12-20T12:01:09;11.13;;;2.00;;
46643;SDS011;32371;51.032;5.816;2023-12-20T12:03:35;9.95;;;1.95;;
46643;SDS011;32371;51.032;5.816;2023-12-20T12:06:01;10.70;;;2.15;;
46643;SDS011;32371;51.032;5.816;2023-12-20T12:08:29;8.02;;;1.80;;
46643;SDS011;32371;51.032;5.816;2023-12-20T12:10:54;8.32;;;1.65;;
46643;SDS011;32371;51.032;5.816;2023-12-20T12:13:20;5.35;;;1.45;;
46643;SDS011;32371;51.032;5.816;2023-12-20T12:15:45;13.27;;;2.47;;
46643;SDS011;32371;51.032;5.816;2023-12-20T12:18:15;19.67;;;3.00;;
46643;SDS011;32371;51.032;5.816;2023-12-20T12:20:40;6.68;;;1.95;;
46643;SDS011;32371;51.032;5.816;2023-12-20T12:23:07;5.78;;;1.63;;
46643;SDS011;32371;51.032;5.816;2023-12-20T12:25:36;6.88;;;2.00;;
46643;SDS011;32371;51.032;5.816;2023-12-20T12:28:04;11.52;;;1.83;;
46643;SDS011;32371;51.032;5.816;2023-12-20T12:30:32;6.35;;;2.17;;
46643;SDS011;32371;51.032;5.816;2023-12-20T12:32:57;12.73;;;2.13;;
46643;SDS011;32371;51.032;5.816;2023-12-20T12:35:23;4.82;;;1.55;;
46643;SDS011;32371;51.032;5.816;2023-12-20T12:37:48;5.82;;;1.65;;
46643;SDS011;32371;51.032;5.816;2023-12-20T12:40:14;8.52;;;1.58;;
46643;SDS011;32371;51.032;5.816;2023-12-20T12:42:42;3.60;;;1.40;;
46643;SDS011;32371;51.032;5.816;2023-12-20T12:45:08;11.25;;;1.80;;
46643;SDS011;32371;51.032;5.816;2023-12-20T12:47:38;9.43;;;1.92;;
46643;SDS011;32371;51.032;5.816;2023-12-20T12:50:04;4.55;;;1.80;;
46643;SDS011;32371;51.032;5.816;2023-12-20T12:52:30;9.15;;;2.22;;
46643;SDS011;32371;51.032;5.816;2023-12-20T12:54:55;10.13;;;1.92;;
46643;SDS011;32371;51.032;5.816;2023-12-20T12:57:21;8.70;;;2.22;;
46643;SDS011;32371;51.032;5.816;2023-12-20T12:59:46;6.43;;;1.65;;
46643;SDS011;32371;51.032;5.816;2023-12-20T13:02:12;14.75;;;1.77;;
46643;SDS011;32371;51.032;5.816;2023-12-20T13:04:38;7.28;;;1.63;;
46643;SDS011;32371;51.032;5.816;2023-12-20T13:07:04;2.95;;;1.80;;
46643;SDS011;32371;51.032;5.816;2023-12-20T13:09:30;7.28;;;1.98;;
46643;SDS011;32371;51.032;5.816;2023-12-20T13:11:56;8.10;;;1.08;;
46643;SDS011;32371;51.032;5.816;2023-12-20T13:14:22;8.48;;;1.67;;
46643;SDS011;32371;51.032;5.816;2023-12-20T13:16:49;4.72;;;1.70;;
46643;SDS011;32371;51.032;5.816;2023-12-20T13:19:14;3.97;;;1.90;;
46643;SDS011;32371;51.032;5.816;2023-12-20T13:21:39;3.35;;;1.45;;
46643;SDS011;32371;51.032;5.816;2023-12-20T13:24:05;10.52;;;1.83;;
46643;SDS011;32371;51.032;5.816;2023-12-20T13:26:31;5.30;;;2.58;;
46643;SDS011;32371;51.032;5.816;2023-12-20T13:28:57;5.30;;;1.52;;
46643;SDS011;32371;51.032;5.816;2023-12-20T13:31:23;3.42;;;1.25;;
46643;SDS011;32371;51.032;5.816;2023-12-20T13:33:49;11.45;;;1.75;;
46643;SDS011;32371;51.032;5.816;2023-12-20T13:36:17;8.05;;;2.25;;
46643;SDS011;32371;51.032;5.816;2023-12-20T13:38:43;12.15;;;2.13;;
46643;SDS011;32371;51.032;5.816;2023-12-20T13:41:08;6.70;;;1.75;;
46643;SDS011;32371;51.032;5.816;2023-12-20T13:43:34;6.55;;;1.45;;
46643;SDS011;32371;51.032;5.816;2023-12-20T13:46:00;6.20;;;1.70;;
46643;SDS011;32371;51.032;5.816;2023-12-20T13:48:25;6.53;;;1.90;;
46643;SDS011;32371;51.032;5.816;2023-12-20T13:50:51;10.48;;;2.08;;
46643;SDS011;32371;51.032;5.816;2023-12-20T13:53:16;6.85;;;2.08;;
46643;SDS011;32371;51.032;5.816;2023-12-20T13:55:41;7.05;;;2.45;;
46643;SDS011;32371;51.032;5.816;2023-12-20T13:58:07;6.72;;;2.35;;
46643;SDS011;32371;51.032;5.816;2023-12-20T14:00:32;10.27;;;1.70;;
46643;SDS011;32371;51.032;5.816;2023-12-20T14:02:58;7.95;;;1.50;;
46643;SDS011;32371;51.032;5.816;2023-12-20T14:05:23;8.23;;;1.65;;
46643;SDS011;32371;51.032;5.816;2023-12-20T14:07:50;4.32;;;2.10;;
46643;SDS011;32371;51.032;5.816;2023-12-20T14:10:16;8.98;;;1.48;;
46643;SDS011;32371;51.032;5.816;2023-12-20T14:12:41;11.95;;;1.52;;
46643;SDS011;32371;51.032;5.816;2023-12-20T14:15:07;4.72;;;1.63;;
46643;SDS011;32371;51.032;5.816;2023-12-20T14:17:39;7.72;;;2.30;;
46643;SDS011;32371;51.032;5.816;2023-12-20T14:20:06;9.48;;;1.50;;
46643;SDS011;32371;51.032;5.816;2023-12-20T14:22:32;7.57;;;2.42;;
46643;SDS011;32371;51.032;5.816;2023-12-20T14:24:58;7.43;;;1.45;;
46643;SDS011;32371;51.032;5.816;2023-12-20T14:27:24;8.27;;;1.88;;
46643;SDS011;32371;51.032;5.816;2023-12-20T14:29:52;6.20;;;1.80;;
46643;SDS011;32371;51.032;5.816;2023-12-20T14:32:18;4.43;;;1.77;;
46643;SDS011;32371;51.032;5.816;2023-12-20T14:34:44;11.48;;;2.00;;
46643;SDS011;32371;51.032;5.816;2023-12-20T14:37:09;10.73;;;2.15;;
46643;SDS011;32371;51.032;5.816;2023-12-20T14:39:34;7.85;;;2.08;;
46643;SDS011;32371;51.032;5.816;2023-12-20T14:42:04;8.57;;;1.85;;
46643;SDS011;32371;51.032;5.816;2023-12-20T14:44:29;6.68;;;1.65;;